createdAt,value
2023-12-04T00:00:32.865Z,-0.31
2023-12-04T00:03:00.338Z,-0.34
2023-12-04T00:05:27.084Z,-0.53
2023-12-04T00:07:54.125Z,-0.51
2023-12-04T00:10:22.241Z,-0.31
2023-12-04T00:12:48.968Z,-0.39
2023-12-04T00:15:15.783Z,-0.38
2023-12-04T00:17:42.589Z,-0.32
2023-12-04T00:20:09.941Z,-0.34
2023-12-04T00:22:36.666Z,-0.44
2023-12-04T00:25:04.492Z,-0.47
2023-12-04T00:27:32.607Z,-0.42
2023-12-04T00:29:59.320Z,-0.46
2023-12-04T00:32:26.089Z,-0.46
2023-12-04T00:34:52.870Z,-0.41
2023-12-04T00:37:19.599Z,-0.46
2023-12-04T00:39:46.421Z,-0.46
2023-12-04T00:42:13.174Z,-0.49
2023-12-04T00:44:41.290Z,-0.49
2023-12-04T00:47:08.027Z,-0.51
2023-12-04T00:49:34.973Z,-0.51
2023-12-04T00:52:01.772Z,-0.50
2023-12-04T00:54:28.504Z,-0.59
2023-12-04T00:56:55.260Z,-0.64
2023-12-04T00:59:22.022Z,-0.79
2023-12-04T01:01:50.138Z,-0.75
2023-12-04T01:04:17.012Z,-0.88
2023-12-04T01:06:43.755Z,-0.73
2023-12-04T01:09:10.555Z,-0.75
2023-12-04T01:11:37.257Z,-0.71
2023-12-04T01:14:03.946Z,-0.85
2023-12-04T01:16:30.633Z,-0.76
2023-12-04T01:18:58.721Z,-0.72
2023-12-04T01:21:25.479Z,-0.65
2023-12-04T01:23:52.320Z,-0.61
2023-12-04T01:26:18.990Z,-0.49
2023-12-04T01:28:45.780Z,-0.49
2023-12-04T01:31:12.501Z,-0.60
2023-12-04T01:33:39.244Z,-0.48
2023-12-04T01:36:08.549Z,-0.60
2023-12-04T01:38:35.268Z,-0.67
2023-12-04T01:41:01.994Z,-0.65
2023-12-04T01:43:28.724Z,-0.61
2023-12-04T01:45:55.493Z,-0.60
2023-12-04T01:48:22.355Z,-0.62
2023-12-04T01:50:49.100Z,-0.62
2023-12-04T01:53:17.227Z,-0.62
2023-12-04T01:55:43.940Z,-0.59
2023-12-04T01:58:10.697Z,-0.50
2023-12-04T02:00:37.491Z,-0.44
2023-12-04T02:03:04.255Z,-0.48
2023-12-04T02:05:30.985Z,-0.44
2023-12-04T02:07:58.042Z,-0.44
2023-12-04T02:10:26.205Z,-0.46
2023-12-04T02:12:53.032Z,-0.39
2023-12-04T02:15:19.792Z,-0.44
2023-12-04T02:17:46.591Z,-0.39
2023-12-04T02:20:14.040Z,-0.34
2023-12-04T02:22:40.840Z,-0.38
2023-12-04T02:25:14.535Z,-0.43
2023-12-04T02:27:50.577Z,-0.36
2023-12-04T02:30:18.653Z,-0.35
2023-12-04T02:32:46.669Z,-0.33
2023-12-04T02:35:13.621Z,-0.30
2023-12-04T02:37:40.279Z,-0.28
2023-12-04T02:40:09.785Z,-0.34
2023-12-04T02:42:36.461Z,-0.36
2023-12-04T02:45:03.523Z,-0.34
2023-12-04T02:47:30.395Z,-0.27
2023-12-04T02:49:57.366Z,-0.33
2023-12-04T02:52:24.029Z,-0.43
2023-12-04T02:54:50.816Z,-0.57
2023-12-04T02:57:18.896Z,-0.45
2023-12-04T02:59:45.668Z,-0.33
2023-12-04T03:02:12.388Z,-0.27
2023-12-04T03:04:39.119Z,-0.26
2023-12-04T03:07:05.837Z,-0.16
2023-12-04T03:09:47.964Z,-0.15
2023-12-04T03:12:16.355Z,-0.12
2023-12-04T03:14:44.379Z,-0.11
2023-12-04T03:17:11.196Z,-0.09
2023-12-04T03:19:38.015Z,-0.17
2023-12-04T03:22:08.102Z,-0.27
2023-12-04T03:24:34.896Z,-0.28
2023-12-04T03:27:01.643Z,-0.28
2023-12-04T03:29:28.426Z,-0.26
2023-12-04T03:31:56.475Z,-0.19
2023-12-04T03:34:23.259Z,-0.20
2023-12-04T03:36:50.019Z,-0.08
2023-12-04T03:39:16.784Z,-0.10
2023-12-04T03:41:43.444Z,-0.09
2023-12-04T03:44:12.834Z,-0.13
2023-12-04T03:46:39.573Z,-0.09
2023-12-04T03:49:07.806Z,-0.06
2023-12-04T03:51:34.586Z,0.09
2023-12-04T03:54:01.402Z,-0.15
2023-12-04T03:56:28.103Z,-0.12
2023-12-04T03:58:54.898Z,-0.11
2023-12-04T04:01:21.621Z,-0.16
2023-12-04T04:03:48.462Z,-0.14
2023-12-04T04:06:16.659Z,-0.09
2023-12-04T04:08:43.536Z,-0.04
2023-12-04T04:11:10.209Z,-0.02
2023-12-04T04:13:36.931Z,0.06
2023-12-04T04:16:04.112Z,0.08
2023-12-04T04:18:31.090Z,0.12
2023-12-04T04:20:57.836Z,0.15
2023-12-04T04:23:25.912Z,0.10
2023-12-04T04:25:52.677Z,0.14
2023-12-04T04:28:19.469Z,0.15
2023-12-04T04:30:46.245Z,0.11
2023-12-04T04:33:12.994Z,0.11
2023-12-04T04:35:39.835Z,0.17
2023-12-04T04:38:06.526Z,0.20
2023-12-04T04:40:34.658Z,0.17
2023-12-04T04:43:01.764Z,0.26
2023-12-04T04:45:28.539Z,0.10
2023-12-04T04:47:55.459Z,0.07
2023-12-04T04:50:22.114Z,0.13
2023-12-04T04:52:48.990Z,0.19
2023-12-04T04:55:45.825Z,0.28
2023-12-04T04:58:03.926Z,0.22
2023-12-04T05:00:30.625Z,0.24
2023-12-04T05:02:57.366Z,0.20
2023-12-04T05:05:24.057Z,0.37
2023-12-04T05:07:50.845Z,0.31
2023-12-04T05:10:17.566Z,0.41
2023-12-04T05:12:44.519Z,0.21
2023-12-04T05:15:12.592Z,0.14
2023-12-04T05:17:39.453Z,0.19
2023-12-04T05:20:07.675Z,0.21
2023-12-04T05:22:35.215Z,0.29
2023-12-04T05:25:01.990Z,0.29
2023-12-04T05:27:28.765Z,0.18
2023-12-04T05:29:55.435Z,-0.00
2023-12-04T05:32:23.497Z,-0.11
2023-12-04T05:34:50.261Z,0.04
2023-12-04T05:37:17.060Z,-0.10
2023-12-04T05:39:43.839Z,-0.27
2023-12-04T05:42:10.575Z,-0.28
2023-12-04T05:44:37.283Z,-0.10
2023-12-04T05:47:04.115Z,-0.02
2023-12-04T05:49:32.224Z,0.04
2023-12-04T05:51:59.027Z,0.08
2023-12-04T05:54:25.749Z,0.12
2023-12-04T05:56:52.424Z,0.20
2023-12-04T05:59:19.160Z,0.22
2023-12-04T06:01:45.873Z,0.19
2023-12-04T06:04:12.660Z,0.16
2023-12-04T06:06:40.752Z,0.11
2023-12-04T06:09:07.556Z,0.23
2023-12-04T06:11:34.308Z,0.30
2023-12-04T06:14:01.020Z,0.45
2023-12-04T06:16:27.727Z,0.38
2023-12-04T06:18:54.555Z,0.41
2023-12-04T06:21:21.380Z,0.31
2023-12-04T06:23:50.152Z,0.23
2023-12-04T06:26:17.392Z,0.09
2023-12-04T06:28:44.784Z,0.28
2023-12-04T06:31:13.063Z,0.14
2023-12-04T06:33:40.427Z,0.24
2023-12-04T06:36:08.472Z,0.36
2023-12-04T06:38:35.209Z,0.41
2023-12-04T06:41:04.156Z,0.51
2023-12-04T06:43:31.578Z,0.47
2023-12-04T06:45:59.348Z,0.45
2023-12-04T06:48:26.727Z,0.49
2023-12-04T06:50:53.438Z,0.36
2023-12-04T06:53:20.128Z,0.46
2023-12-04T06:55:47.016Z,0.60
2023-12-04T06:58:15.158Z,0.28
2023-12-04T07:00:42.240Z,0.26
2023-12-04T07:03:08.960Z,0.35
2023-12-04T07:05:35.736Z,0.41
2023-12-04T07:08:02.456Z,0.46
2023-12-04T07:10:30.182Z,0.43
2023-12-04T07:12:59.077Z,0.42
2023-12-04T07:15:27.103Z,0.07
2023-12-04T07:17:54.830Z,0.02
2023-12-04T07:20:23.516Z,0.22
2023-12-04T07:22:50.264Z,0.30
2023-12-04T07:25:16.976Z,0.35
2023-12-04T07:27:43.694Z,0.30
2023-12-04T07:30:11.217Z,0.37
2023-12-04T07:32:39.406Z,0.36
2023-12-04T07:35:07.619Z,0.35
2023-12-04T07:37:34.358Z,0.48
2023-12-04T07:40:01.167Z,0.54
2023-12-04T07:42:27.969Z,0.66
2023-12-04T07:44:54.720Z,0.75
2023-12-04T07:47:21.412Z,0.74
2023-12-04T07:49:49.517Z,0.68
2023-12-04T07:52:16.315Z,0.69
2023-12-04T07:54:43.468Z,0.83
2023-12-04T07:57:10.206Z,0.89
2023-12-04T07:59:36.948Z,0.99
2023-12-04T08:02:03.904Z,0.96
2023-12-04T08:04:30.638Z,0.90
2023-12-04T08:06:58.798Z,0.78
2023-12-04T08:09:25.521Z,0.75
2023-12-04T08:11:53.825Z,0.85
2023-12-04T08:14:21.874Z,0.88
2023-12-04T08:16:48.905Z,0.96
2023-12-04T08:19:15.918Z,0.88
2023-12-04T08:21:42.698Z,0.84
2023-12-04T08:24:10.743Z,0.84
2023-12-04T08:26:37.405Z,0.66
2023-12-04T08:29:04.089Z,0.59
2023-12-04T08:31:30.836Z,0.64
2023-12-04T08:33:57.665Z,0.60
2023-12-04T08:36:24.450Z,0.66
2023-12-04T08:38:51.307Z,0.78
2023-12-04T08:41:19.339Z,0.80
2023-12-04T08:43:46.188Z,0.85
2023-12-04T08:46:13.806Z,0.91
2023-12-04T08:48:41.085Z,1.03
2023-12-04T08:51:08.159Z,1.06
2023-12-04T08:53:34.930Z,1.10
2023-12-04T08:56:01.672Z,1.19
2023-12-04T08:58:29.816Z,1.24
2023-12-04T09:00:56.592Z,1.31
2023-12-04T09:03:29.598Z,1.35
2023-12-04T09:05:59.517Z,1.44
2023-12-04T09:08:34.495Z,1.40
2023-12-04T09:11:18.342Z,1.48
2023-12-04T09:13:51.428Z,1.56
2023-12-04T09:16:18.403Z,1.49
2023-12-04T09:18:45.469Z,1.46
2023-12-04T09:21:12.311Z,1.19
2023-12-04T09:23:39.040Z,1.31
2023-12-04T09:26:06.051Z,1.13
2023-12-04T09:28:34.459Z,1.24
2023-12-04T09:31:02.642Z,1.35
2023-12-04T09:33:29.550Z,1.34
2023-12-04T09:35:56.345Z,1.31
2023-12-04T09:38:23.079Z,1.47
2023-12-04T09:40:49.768Z,1.44
2023-12-04T09:43:16.586Z,1.44
2023-12-04T09:45:43.355Z,1.58
2023-12-04T09:48:11.646Z,1.53
2023-12-04T09:50:38.612Z,1.67
2023-12-04T09:53:05.374Z,1.67
2023-12-04T09:55:32.118Z,1.56
2023-12-04T09:57:59.078Z,1.66
2023-12-04T10:00:25.899Z,1.33
2023-12-04T10:02:53.437Z,1.42
2023-12-04T10:05:21.727Z,1.51
2023-12-04T10:07:52.942Z,1.58
2023-12-04T10:10:19.714Z,1.55
2023-12-04T10:12:46.651Z,1.46
2023-12-04T10:15:13.589Z,1.35
2023-12-04T10:17:41.024Z,1.24
2023-12-04T10:20:09.849Z,1.40
2023-12-04T10:22:38.257Z,1.42
2023-12-04T10:25:14.913Z,1.51
2023-12-04T10:27:41.759Z,1.48
2023-12-04T10:30:09.342Z,1.58
2023-12-04T10:32:37.390Z,1.61
2023-12-04T10:35:04.562Z,1.67
2023-12-04T10:37:31.283Z,1.60
2023-12-04T10:39:59.327Z,1.54
2023-12-04T10:42:26.462Z,1.55
2023-12-04T10:44:53.208Z,1.64
2023-12-04T10:47:20.617Z,1.61
2023-12-04T10:49:47.374Z,1.61
2023-12-04T10:52:14.154Z,1.64
2023-12-04T10:54:40.914Z,1.66
2023-12-04T10:57:09.041Z,1.59
2023-12-04T10:59:37.663Z,1.65
2023-12-04T11:02:06.061Z,1.63
2023-12-04T11:04:32.884Z,1.57
2023-12-04T11:07:00.154Z,1.64
2023-12-04T11:09:27.602Z,1.50
2023-12-04T11:11:57.479Z,1.64
2023-12-04T11:14:26.323Z,1.46
2023-12-04T11:16:56.993Z,1.47
2023-12-04T11:19:27.263Z,1.35
2023-12-04T11:21:54.164Z,1.40
2023-12-04T11:24:20.906Z,1.26
2023-12-04T11:26:47.691Z,1.36
2023-12-04T11:29:14.370Z,1.48
2023-12-04T11:31:42.698Z,1.50
2023-12-04T11:34:09.506Z,1.57
2023-12-04T11:36:36.381Z,1.62
2023-12-04T11:39:03.217Z,1.73
2023-12-04T11:41:30.680Z,1.76
2023-12-04T11:43:57.809Z,1.74
2023-12-04T11:46:26.053Z,1.80
2023-12-04T11:48:56.306Z,1.83
2023-12-04T11:51:46.269Z,1.89
2023-12-04T11:54:14.818Z,1.90
2023-12-04T11:56:41.501Z,1.82
2023-12-04T11:59:08.380Z,1.85
2023-12-04T12:01:35.212Z,2.07
2023-12-04T12:04:05.615Z,2.01
2023-12-04T12:06:32.787Z,1.95
2023-12-04T12:08:59.559Z,1.90
2023-12-04T12:11:26.407Z,1.97
2023-12-04T12:13:54.156Z,1.99
2023-12-04T12:16:21.533Z,1.99
2023-12-04T12:18:48.884Z,2.00
2023-12-04T12:21:17.822Z,2.02
2023-12-04T12:23:44.710Z,2.14
2023-12-04T12:26:11.609Z,1.89
2023-12-04T12:28:38.334Z,1.78
2023-12-04T12:31:05.655Z,1.85
2023-12-04T12:33:32.451Z,1.80
2023-12-04T12:36:03.253Z,1.88
2023-12-04T12:38:36.760Z,1.96
2023-12-04T12:41:12.435Z,1.98
2023-12-04T12:43:58.529Z,1.94
2023-12-04T12:50:26.823Z,1.98
2023-12-04T12:52:53.662Z,2.07
2023-12-04T12:55:25.140Z,2.07
2023-12-04T12:57:51.874Z,1.95
2023-12-04T13:00:18.863Z,1.96
2023-12-04T13:02:45.806Z,1.97
2023-12-04T13:05:12.562Z,1.92
2023-12-04T13:07:39.321Z,2.00
2023-12-04T13:10:07.150Z,1.86
2023-12-04T13:12:35.388Z,1.92
2023-12-04T13:15:02.307Z,1.58
2023-12-04T13:17:29.096Z,1.73
2023-12-04T13:19:55.817Z,1.61
2023-12-04T13:22:22.492Z,1.65
2023-12-04T13:24:49.179Z,1.71
2023-12-04T13:27:15.940Z,1.69
2023-12-04T13:29:43.964Z,1.55
2023-12-04T13:32:10.686Z,1.61
2023-12-04T13:34:37.597Z,1.66
2023-12-04T13:37:04.371Z,1.74
2023-12-04T13:39:31.051Z,1.65
2023-12-04T13:41:57.796Z,1.55
2023-12-04T13:44:24.463Z,1.71
2023-12-04T13:46:52.505Z,1.83
2023-12-04T13:49:19.204Z,1.83
2023-12-04T13:51:46.014Z,1.82
2023-12-04T13:54:12.709Z,1.75
2023-12-04T13:56:39.428Z,1.81
2023-12-04T13:59:06.138Z,1.84
2023-12-04T14:01:32.953Z,1.84
2023-12-04T14:04:01.139Z,1.92
2023-12-04T14:06:28.117Z,1.92
2023-12-04T14:08:57.035Z,1.92
2023-12-04T14:11:24.390Z,1.93
2023-12-04T14:13:51.083Z,2.02
2023-12-04T14:16:17.820Z,1.99
2023-12-04T14:18:44.518Z,2.04
2023-12-04T14:21:12.557Z,2.03
2023-12-04T14:23:39.218Z,2.10
2023-12-04T14:26:06.164Z,2.12
2023-12-04T14:28:40.541Z,2.15
2023-12-04T14:31:10.018Z,2.12
2023-12-04T14:33:39.162Z,2.10
2023-12-04T14:36:08.057Z,2.08
2023-12-04T14:38:36.088Z,2.14
2023-12-04T14:41:03.050Z,2.14
2023-12-04T14:43:29.751Z,2.13
2023-12-04T14:45:56.468Z,2.13
2023-12-04T14:48:23.246Z,2.16
2023-12-04T14:50:49.989Z,2.15
2023-12-04T14:53:16.686Z,2.17
2023-12-04T14:55:45.066Z,2.18
2023-12-04T14:58:11.782Z,2.18
2023-12-04T15:00:38.608Z,2.19
2023-12-04T15:03:05.561Z,2.22
2023-12-04T15:05:32.407Z,2.23
2023-12-04T15:07:59.768Z,2.20
2023-12-04T15:10:28.023Z,2.06
2023-12-04T15:12:56.107Z,2.12
2023-12-04T15:15:23.104Z,2.17
2023-12-04T15:17:49.838Z,2.20
2023-12-04T15:20:16.641Z,2.28
2023-12-04T15:22:43.405Z,2.29
2023-12-04T15:25:10.115Z,2.30
2023-12-04T15:27:36.867Z,2.27
2023-12-04T15:30:06.258Z,2.29
2023-12-04T15:32:33.094Z,2.30
2023-12-04T15:35:02.146Z,2.32
2023-12-04T15:37:29.876Z,2.30
2023-12-04T15:39:56.591Z,2.29
2023-12-04T15:42:23.395Z,2.27
2023-12-04T15:44:50.097Z,2.24
2023-12-04T15:47:18.149Z,2.34
2023-12-04T15:49:44.967Z,2.29
2023-12-04T15:52:11.776Z,2.30
2023-12-04T15:54:38.528Z,2.31
2023-12-04T15:57:05.579Z,2.29
2023-12-04T15:59:32.270Z,2.36
2023-12-04T16:01:59.108Z,2.32
2023-12-04T16:04:27.669Z,2.33
2023-12-04T16:06:57.172Z,2.31
2023-12-04T16:09:23.981Z,2.30
2023-12-04T16:11:50.867Z,2.35
2023-12-04T16:14:17.576Z,2.33
2023-12-04T16:16:44.350Z,2.30
2023-12-04T16:19:11.183Z,2.33
2023-12-04T16:21:39.847Z,2.36
2023-12-04T16:24:06.941Z,2.36
2023-12-04T16:26:33.671Z,2.37
2023-12-04T16:29:02.016Z,2.62
2023-12-04T16:31:28.966Z,2.49
2023-12-04T16:33:55.758Z,2.38
2023-12-04T16:36:23.170Z,2.39
2023-12-04T16:38:51.264Z,2.41
2023-12-04T16:41:17.989Z,2.39
2023-12-04T16:43:44.710Z,2.44
2023-12-04T16:46:11.558Z,2.41
2023-12-04T16:48:38.302Z,2.43
2023-12-04T16:51:05.718Z,2.55
2023-12-04T16:53:32.644Z,2.45
2023-12-04T16:56:00.930Z,2.49
2023-12-04T16:58:27.616Z,2.49
2023-12-04T17:00:54.417Z,2.52
2023-12-04T17:03:22.070Z,2.48
2023-12-04T17:05:51.067Z,2.49
2023-12-04T17:08:18.543Z,2.51
2023-12-04T17:10:45.971Z,2.50
2023-12-04T17:13:14.032Z,2.45
2023-12-04T17:15:40.888Z,2.48
2023-12-04T17:18:07.713Z,2.53
2023-12-04T17:20:34.483Z,2.57
2023-12-04T17:23:01.172Z,2.59
2023-12-04T17:25:27.924Z,2.63
2023-12-04T17:27:55.418Z,2.60
2023-12-04T17:30:24.031Z,2.62
2023-12-04T17:32:50.852Z,2.61
2023-12-04T17:35:17.784Z,2.66
2023-12-04T17:37:45.904Z,2.68
2023-12-04T17:40:13.502Z,2.70
2023-12-04T17:42:41.050Z,2.72
2023-12-04T17:45:09.519Z,2.72
2023-12-04T17:47:37.617Z,2.70
2023-12-04T17:50:04.971Z,2.67
2023-12-04T17:52:31.659Z,2.59
2023-12-04T17:54:58.627Z,2.64
2023-12-04T17:57:25.859Z,2.71
2023-12-04T17:59:53.409Z,2.70
2023-12-04T18:02:22.073Z,2.73
2023-12-04T18:04:51.936Z,2.74
2023-12-04T18:07:18.693Z,2.75
2023-12-04T18:09:45.430Z,2.75
2023-12-04T18:12:12.517Z,2.72
2023-12-04T18:14:39.281Z,2.73
2023-12-04T18:17:06.014Z,2.72
2023-12-04T18:19:32.853Z,2.76
2023-12-04T18:22:00.944Z,2.76
2023-12-04T18:24:27.769Z,2.76
2023-12-04T18:26:55.023Z,2.74
2023-12-04T18:29:22.486Z,2.75
2023-12-04T18:31:49.758Z,2.76
2023-12-04T18:34:22.640Z,2.91
2023-12-04T18:36:50.098Z,2.74
2023-12-04T18:39:18.180Z,2.83
2023-12-04T18:41:45.495Z,2.90
2023-12-04T18:44:12.760Z,2.94
2023-12-04T18:46:39.484Z,2.92
2023-12-04T18:49:06.398Z,2.94
2023-12-04T18:51:34.616Z,2.99
2023-12-04T18:54:02.108Z,2.93
2023-12-04T18:56:30.261Z,3.07
2023-12-04T18:58:57.024Z,3.03
2023-12-04T19:01:23.825Z,3.07
2023-12-04T19:03:50.810Z,3.11
2023-12-04T19:06:17.761Z,3.10
2023-12-04T19:08:44.501Z,3.10
2023-12-04T19:11:11.258Z,3.01
2023-12-04T19:13:39.337Z,3.05
2023-12-04T19:16:06.698Z,3.16
2023-12-04T19:18:35.524Z,3.18
2023-12-04T19:21:03.638Z,3.13
2023-12-04T19:23:30.536Z,3.17
2023-12-04T19:25:57.311Z,3.16
2023-12-04T19:28:24.059Z,3.20
2023-12-04T19:30:52.214Z,3.22
2023-12-04T19:33:25.664Z,3.09
2023-12-04T19:35:55.620Z,3.15
2023-12-04T19:38:23.535Z,3.15
2023-12-04T19:40:50.346Z,3.22
2023-12-04T19:43:17.090Z,3.19
2023-12-04T19:45:45.893Z,3.27
2023-12-04T19:48:14.140Z,3.36
2023-12-04T19:50:41.046Z,3.39
2023-12-04T19:53:07.807Z,3.63
2023-12-04T19:55:34.576Z,3.74
2023-12-04T19:58:01.289Z,3.72
2023-12-04T20:00:28.093Z,3.73
2023-12-04T20:02:54.893Z,3.68
2023-12-04T20:05:23.994Z,3.70
2023-12-04T20:07:50.832Z,3.68
2023-12-04T20:10:17.579Z,3.69
2023-12-04T20:12:44.287Z,3.66
2023-12-04T20:15:11.372Z,3.67
2023-12-04T20:17:38.213Z,3.53
2023-12-04T20:20:08.473Z,3.63
2023-12-04T20:22:36.681Z,3.69
2023-12-04T20:25:03.751Z,3.88
2023-12-04T20:27:30.544Z,3.72
2023-12-04T20:29:57.330Z,3.73
2023-12-04T20:32:24.174Z,3.88
2023-12-04T20:34:53.626Z,3.84
2023-12-04T20:37:20.380Z,3.83
2023-12-04T20:39:48.507Z,3.77
2023-12-04T20:42:15.334Z,3.96
2023-12-04T20:44:42.158Z,3.77
2023-12-04T20:47:08.846Z,3.81
2023-12-04T20:49:35.739Z,3.93
2023-12-04T20:52:02.522Z,3.93
2023-12-04T20:54:29.442Z,3.91
2023-12-04T20:56:57.856Z,3.99
2023-12-04T20:59:24.598Z,4.02
2023-12-04T21:01:51.820Z,4.01
2023-12-04T21:04:18.901Z,4.02
2023-12-04T21:06:45.750Z,4.08
2023-12-04T21:09:12.568Z,4.05
2023-12-04T21:11:39.324Z,4.02
2023-12-04T21:14:07.495Z,4.03
2023-12-04T21:16:34.526Z,4.05
2023-12-04T21:19:02.585Z,4.07
2023-12-04T21:21:29.536Z,4.10
2023-12-04T21:23:56.804Z,4.05
2023-12-04T21:26:23.535Z,4.02
2023-12-04T21:28:50.352Z,4.01
2023-12-04T21:31:18.477Z,4.08
2023-12-04T21:33:45.330Z,4.12
2023-12-04T21:36:12.389Z,4.04
2023-12-04T21:38:39.107Z,4.01
2023-12-04T21:41:06.056Z,4.09
2023-12-04T21:43:33.823Z,4.02
2023-12-04T21:46:02.155Z,4.18
2023-12-04T21:48:30.408Z,4.28
2023-12-04T21:50:57.467Z,4.33
2023-12-04T21:53:24.258Z,4.47
2023-12-04T21:55:50.974Z,4.42
2023-12-04T21:58:17.677Z,4.47
2023-12-04T22:00:44.431Z,4.42
2023-12-04T22:03:11.262Z,4.54
2023-12-04T22:05:39.672Z,4.69
2023-12-04T22:08:06.626Z,4.54
2023-12-04T22:10:33.404Z,4.54
2023-12-04T22:13:00.193Z,4.48
2023-12-04T22:15:27.138Z,4.48
2023-12-04T22:17:53.908Z,4.54
2023-12-04T22:20:21.956Z,4.64
2023-12-04T22:22:50.057Z,4.65
2023-12-04T22:25:19.798Z,4.57
2023-12-04T22:27:46.645Z,4.63
2023-12-04T22:30:13.942Z,4.63
2023-12-04T22:32:41.011Z,4.69
2023-12-04T22:35:08.172Z,4.68
2023-12-04T22:37:35.069Z,4.72
2023-12-04T22:40:05.900Z,4.76
2023-12-04T22:42:33.210Z,4.71
2023-12-04T22:45:00.034Z,4.78
2023-12-04T22:47:27.179Z,4.73
2023-12-04T22:49:53.996Z,4.80
2023-12-04T22:52:20.797Z,4.84
2023-12-04T22:54:47.623Z,4.76
2023-12-04T22:57:15.752Z,4.84
2023-12-04T22:59:42.544Z,4.80
2023-12-04T23:02:09.784Z,4.81
2023-12-04T23:04:36.560Z,4.86
2023-12-04T23:07:03.621Z,4.91
2023-12-04T23:09:30.338Z,4.92
2023-12-04T23:11:57.141Z,4.94
2023-12-04T23:14:27.247Z,5.07
2023-12-04T23:16:53.932Z,4.89
2023-12-04T23:19:20.676Z,4.92
2023-12-04T23:21:47.506Z,5.00
2023-12-04T23:24:14.527Z,5.10
2023-12-04T23:26:41.307Z,5.25
2023-12-04T23:29:07.969Z,5.08
2023-12-04T23:31:36.053Z,5.05
2023-12-04T23:34:03.232Z,5.12
2023-12-04T23:36:30.029Z,5.12
2023-12-04T23:38:56.702Z,5.14
2023-12-04T23:41:23.511Z,5.14
2023-12-04T23:43:50.217Z,5.29
2023-12-04T23:46:16.973Z,5.23
2023-12-04T23:48:45.209Z,5.21
2023-12-04T23:51:12.095Z,5.20
2023-12-04T23:53:38.810Z,5.25
2023-12-04T23:56:06.619Z,5.25
2023-12-04T23:58:33.524Z,5.29
